createdAt,value
2018-10-19T00:00:30.651Z,4.50
2018-10-19T00:03:00.258Z,4.73
2018-10-19T00:05:28.649Z,4.57
2018-10-19T00:07:58.252Z,4.80
2018-10-19T00:10:27.858Z,4.73
2018-10-19T00:12:56.254Z,4.70
2018-10-19T00:15:24.892Z,4.97
2018-10-19T00:17:53.258Z,4.63
2018-10-19T00:20:22.922Z,4.50
2018-10-19T00:22:52.968Z,5.03
2018-10-19T00:25:21.518Z,4.70
2018-10-19T00:27:51.070Z,4.80
2018-10-19T00:30:20.724Z,4.57
2018-10-19T00:32:49.102Z,4.67
2018-10-19T00:35:18.710Z,5.80
2018-10-19T00:37:48.310Z,4.70
2018-10-19T00:40:17.890Z,4.73
2018-10-19T00:42:47.550Z,5.20
2018-10-19T00:45:25.011Z,4.77
2018-10-19T00:47:53.514Z,5.20
2018-10-19T00:50:28.330Z,4.47
2018-10-19T00:52:57.989Z,5.17
2018-10-19T00:55:30.306Z,4.50
2018-10-19T00:57:58.700Z,5.87
2018-10-19T01:00:30.765Z,4.97
2018-10-19T01:03:00.385Z,4.70
2018-10-19T01:05:32.090Z,4.93
2018-10-19T01:08:00.573Z,4.57
2018-10-19T01:10:31.025Z,4.40
2018-10-19T01:13:12.339Z,4.93
2018-10-19T01:15:45.053Z,4.60
2018-10-19T01:18:13.761Z,4.50
2018-10-19T01:20:45.491Z,4.90
2018-10-19T01:23:14.219Z,4.70
2018-10-19T01:26:22.687Z,4.93
2018-10-19T01:28:51.228Z,4.47
2018-10-19T01:31:19.812Z,4.63
2018-10-19T01:33:48.232Z,4.40
2018-10-19T01:36:16.595Z,4.40
2018-10-19T01:38:51.407Z,4.30
2018-10-19T01:41:23.805Z,4.63
2018-10-19T01:43:54.344Z,4.27
2018-10-19T01:46:37.447Z,4.40
2018-10-19T01:49:05.823Z,4.60
2018-10-19T01:51:35.456Z,4.30
2018-10-19T01:54:07.280Z,4.87
2018-10-19T01:56:35.910Z,4.57
2018-10-19T01:59:10.246Z,4.33
2018-10-19T02:01:38.762Z,4.90
2018-10-19T02:04:17.332Z,4.30
2018-10-19T02:06:50.658Z,4.60
2018-10-19T02:09:21.120Z,4.40
2018-10-19T02:11:55.348Z,4.43
2018-10-19T02:14:23.802Z,4.33
2018-10-19T02:16:52.474Z,4.63
2018-10-19T02:19:21.090Z,4.80
2018-10-19T02:21:50.699Z,4.57
2018-10-19T02:24:23.745Z,4.63
2018-10-19T02:26:53.321Z,4.90
2018-10-19T02:29:25.034Z,4.50
2018-10-19T02:31:59.314Z,5.03
2018-10-19T02:34:29.798Z,5.20
2018-10-19T02:37:03.782Z,5.10
2018-10-19T02:39:40.406Z,4.80
2018-10-19T02:42:14.636Z,4.87
2018-10-19T02:44:46.424Z,4.50
2018-10-19T02:47:17.505Z,4.80
2018-10-19T02:49:58.970Z,4.90
2018-10-19T02:52:27.508Z,5.00
2018-10-19T02:54:59.218Z,4.37
2018-10-19T02:57:33.458Z,4.60
2018-10-19T03:00:07.889Z,4.40
2018-10-19T03:02:36.372Z,4.33
2018-10-19T03:05:08.664Z,4.73
2018-10-19T03:07:40.818Z,4.73
2018-10-19T03:10:14.144Z,4.93
2018-10-19T03:12:44.634Z,4.77
2018-10-19T03:15:13.097Z,4.73
2018-10-19T03:17:42.626Z,4.97
2018-10-19T03:20:14.964Z,4.40
2018-10-19T03:22:46.721Z,4.23
2018-10-19T03:25:18.518Z,4.50
2018-10-19T03:27:52.778Z,4.50
2018-10-19T03:30:29.429Z,5.27
2018-10-19T03:33:03.691Z,4.53
2018-10-19T03:35:33.273Z,4.53
2018-10-19T03:38:01.938Z,4.50
2018-10-19T03:40:38.993Z,4.80
2018-10-19T03:43:13.437Z,4.43
2018-10-19T03:45:41.803Z,4.17
2018-10-19T03:48:11.394Z,4.70
2018-10-19T03:50:50.569Z,4.70
2018-10-19T03:53:20.339Z,5.23
2018-10-19T03:55:50.707Z,4.53
2018-10-19T03:58:24.265Z,4.90
2018-10-19T04:00:52.645Z,4.20
2018-10-19T04:03:24.779Z,4.10
2018-10-19T04:06:03.934Z,4.70
2018-10-19T04:08:38.369Z,4.30
2018-10-19T04:11:10.162Z,4.40
2018-10-19T04:13:44.321Z,4.10
2018-10-19T04:16:16.457Z,5.17
2018-10-19T04:18:50.668Z,4.60
2018-10-19T04:21:19.451Z,4.47
2018-10-19T04:23:48.970Z,4.50
2018-10-19T04:26:18.521Z,4.03
2018-10-19T04:28:53.093Z,4.17
2018-10-19T04:31:22.730Z,4.50
2018-10-19T04:33:53.197Z,4.63
2018-10-19T04:36:28.359Z,4.23
2018-10-19T04:39:04.892Z,4.77
2018-10-19T04:41:33.521Z,4.73
2018-10-19T04:44:04.066Z,4.53
2018-10-19T04:46:32.949Z,4.80
2018-10-19T04:49:02.789Z,5.07
2018-10-19T04:51:35.254Z,4.97
2018-10-19T04:54:04.151Z,5.33
2018-10-19T04:56:38.906Z,4.77
2018-10-19T04:59:07.717Z,5.33
2018-10-19T05:01:42.080Z,5.07
2018-10-19T05:04:10.771Z,5.00
2018-10-19T05:06:39.624Z,5.23
2018-10-19T05:09:09.978Z,5.77
2018-10-19T05:11:39.026Z,5.80
2018-10-19T05:14:08.065Z,4.93
2018-10-19T05:16:37.430Z,5.23
2018-10-19T05:19:09.646Z,5.30
2018-10-19T05:21:40.206Z,5.03
2018-10-19T05:24:08.882Z,5.37
2018-10-19T05:26:37.563Z,5.50
2018-10-19T05:29:06.428Z,5.30
2018-10-19T05:31:38.871Z,5.93
2018-10-19T05:34:07.602Z,5.60
2018-10-19T05:36:36.296Z,5.83
2018-10-19T05:39:07.426Z,5.83
2018-10-19T05:41:36.130Z,5.57
2018-10-19T05:44:04.978Z,6.10
2018-10-19T05:46:33.554Z,6.20
2018-10-19T05:49:02.238Z,6.10
2018-10-19T05:51:30.950Z,5.70
2018-10-19T05:53:59.663Z,6.23
2018-10-19T05:56:28.425Z,6.50
2018-10-19T05:58:58.171Z,6.53
2018-10-19T06:01:26.817Z,6.90
2018-10-19T06:03:56.409Z,6.30
2018-10-19T06:06:25.138Z,5.47
2018-10-19T06:08:53.810Z,6.20
2018-10-19T06:11:22.614Z,6.17
2018-10-19T06:13:51.303Z,6.10
2018-10-19T06:16:19.915Z,6.10
2018-10-19T06:18:48.568Z,6.37
2018-10-19T06:21:18.096Z,6.27
2018-10-19T06:23:48.097Z,6.87
2018-10-19T06:26:16.795Z,7.07
2018-10-19T06:28:45.535Z,7.07
2018-10-19T06:31:15.062Z,6.60
2018-10-19T06:33:45.366Z,6.43
2018-10-19T06:36:13.909Z,6.83
2018-10-19T06:38:43.581Z,7.50
2018-10-19T06:41:12.280Z,6.53
2018-10-19T06:43:41.017Z,6.40
2018-10-19T06:46:09.621Z,6.50
2018-10-19T06:48:38.391Z,6.40
2018-10-19T06:51:07.997Z,6.33
2018-10-19T06:53:36.584Z,6.73
2018-10-19T06:56:05.505Z,6.70
2018-10-19T06:58:34.005Z,6.77
2018-10-19T07:01:02.753Z,6.53
2018-10-19T07:03:31.449Z,7.17
2018-10-19T07:06:00.012Z,7.23
2018-10-19T07:08:30.651Z,7.13
2018-10-19T07:11:00.161Z,6.83
2018-10-19T07:13:28.784Z,7.10
2018-10-19T07:16:07.016Z,6.57
2018-10-19T07:18:43.677Z,7.07
2018-10-19T07:21:14.232Z,6.80
2018-10-19T07:23:43.854Z,7.00
2018-10-19T07:26:12.482Z,7.23
2018-10-19T07:28:40.854Z,7.20
2018-10-19T07:31:12.942Z,8.17
2018-10-19T07:33:42.582Z,7.30
2018-10-19T07:36:13.157Z,7.53
2018-10-19T07:38:41.787Z,7.77
2018-10-19T07:41:14.198Z,7.87
2018-10-19T07:43:42.968Z,8.00
2018-10-19T07:46:14.602Z,8.27
2018-10-19T07:48:44.212Z,8.60
2018-10-19T07:51:18.720Z,8.20
2018-10-19T07:53:50.225Z,8.40
2018-10-19T07:56:18.873Z,8.90
2018-10-19T07:58:49.487Z,9.00
2018-10-19T08:01:18.154Z,9.37
2018-10-19T08:03:46.772Z,8.87
2018-10-19T08:06:23.152Z,9.80
2018-10-19T08:08:59.797Z,10.00
2018-10-19T08:11:34.124Z,10.13
2018-10-19T08:14:09.222Z,10.23
2018-10-19T08:16:41.603Z,10.63
2018-10-19T08:19:11.165Z,11.07
2018-10-19T08:21:49.481Z,10.20
2018-10-19T08:24:23.879Z,10.83
2018-10-19T08:27:03.663Z,10.70
2018-10-19T08:29:34.304Z,10.07
2018-10-19T08:32:09.037Z,10.30
2018-10-19T08:34:38.717Z,10.97
2018-10-19T08:37:08.263Z,10.67
2018-10-19T08:39:43.652Z,12.30
2018-10-19T08:42:16.989Z,10.70
2018-10-19T08:44:47.562Z,10.83
2018-10-19T08:47:16.273Z,12.60
2018-10-19T08:49:46.714Z,11.93
2018-10-19T08:52:18.831Z,12.23
2018-10-19T08:54:49.535Z,12.03
2018-10-19T08:57:21.680Z,13.07
2018-10-19T08:59:53.534Z,12.77
2018-10-19T09:02:27.384Z,13.47
2018-10-19T09:04:56.080Z,14.17
2018-10-19T09:07:25.673Z,12.47
2018-10-19T09:09:56.220Z,13.00
2018-10-19T09:12:28.230Z,15.07
2018-10-19T09:15:01.185Z,13.47
2018-10-19T09:17:32.716Z,13.00
2018-10-19T09:20:02.341Z,13.87
2018-10-19T09:22:30.710Z,12.93
2018-10-19T09:25:11.693Z,14.20
2018-10-19T09:27:43.435Z,13.13
2018-10-19T09:30:15.485Z,13.97
2018-10-19T09:32:49.362Z,12.90
2018-10-19T09:35:21.920Z,13.90
2018-10-19T09:37:56.040Z,12.60
2018-10-19T09:40:24.771Z,13.20
2018-10-19T09:42:53.455Z,13.57
2018-10-19T09:45:26.623Z,13.33
2018-10-19T09:47:55.425Z,13.80
2018-10-19T09:50:24.206Z,13.17
2018-10-19T09:52:52.800Z,13.57
2018-10-19T09:55:21.489Z,13.00
2018-10-19T09:57:50.136Z,14.03
2018-10-19T10:00:24.875Z,13.70
2018-10-19T10:02:57.062Z,13.30
2018-10-19T10:05:31.162Z,13.53
2018-10-19T10:08:03.743Z,13.87
2018-10-19T10:10:50.387Z,13.37
2018-10-19T10:13:18.977Z,13.80
2018-10-19T10:15:53.035Z,14.00
2018-10-19T10:18:25.372Z,14.10
2018-10-19T10:20:54.088Z,13.00
2018-10-19T10:23:23.683Z,13.57
2018-10-19T10:25:53.421Z,12.03
2018-10-19T10:28:22.852Z,12.50
2018-10-19T10:30:51.261Z,12.60
2018-10-19T10:33:20.306Z,13.50
2018-10-19T10:35:51.646Z,13.23
2018-10-19T10:38:20.186Z,13.20
2018-10-19T10:40:48.795Z,12.73
2018-10-19T10:43:17.469Z,13.53
2018-10-19T10:45:47.134Z,13.10
2018-10-19T10:48:15.794Z,13.90
2018-10-19T10:50:45.425Z,12.67
2018-10-19T10:53:14.937Z,12.63
2018-10-19T10:55:47.325Z,12.90
2018-10-19T10:58:17.041Z,12.47
2018-10-19T11:00:49.707Z,12.47
2018-10-19T11:03:18.355Z,13.27
2018-10-19T11:05:47.398Z,12.70
2018-10-19T11:08:15.985Z,12.03
2018-10-19T11:10:46.623Z,12.97
2018-10-19T11:13:15.235Z,12.70
2018-10-19T11:15:43.991Z,12.50
2018-10-19T11:18:14.193Z,12.87
2018-10-19T11:20:45.909Z,13.10
2018-10-19T11:23:18.145Z,13.83
2018-10-19T11:25:53.123Z,12.77
2018-10-19T11:28:27.507Z,12.30
2018-10-19T11:30:57.027Z,12.27
2018-10-19T11:33:25.607Z,12.57
2018-10-19T11:35:53.961Z,13.53
2018-10-19T11:38:22.392Z,13.73
2018-10-19T11:40:52.933Z,13.63
2018-10-19T11:43:21.673Z,13.10
2018-10-19T11:45:50.337Z,13.07
2018-10-19T11:48:18.982Z,12.23
2018-10-19T11:50:47.694Z,12.57
2018-10-19T11:53:17.282Z,13.10
2018-10-19T11:55:46.858Z,12.40
2018-10-19T11:58:15.627Z,12.83
2018-10-19T12:00:44.239Z,11.33
2018-10-19T12:03:19.053Z,11.50
2018-10-19T12:05:48.633Z,11.30
2018-10-19T12:08:18.351Z,12.17
2018-10-19T12:10:47.207Z,12.20
2018-10-19T12:13:16.655Z,12.40
2018-10-19T12:15:46.141Z,12.43
2018-10-19T12:18:15.774Z,13.13
2018-10-19T12:20:50.005Z,12.00
2018-10-19T12:23:21.758Z,12.73
2018-10-19T12:25:51.346Z,13.37
2018-10-19T12:28:20.955Z,13.97
2018-10-19T12:30:50.736Z,12.93
2018-10-19T12:33:19.260Z,12.17
2018-10-19T12:35:47.690Z,12.90
2018-10-19T12:38:16.910Z,12.40
2018-10-19T12:40:47.480Z,12.87
2018-10-19T12:43:22.030Z,13.23
2018-10-19T12:46:30.209Z,12.40
2018-10-19T12:48:58.759Z,13.17
2018-10-19T12:51:32.668Z,13.50
2018-10-19T12:54:07.387Z,12.83
2018-10-19T12:56:43.803Z,13.13
2018-10-19T12:59:20.478Z,13.23
2018-10-19T13:01:48.837Z,12.80
2018-10-19T13:04:17.269Z,13.37
2018-10-19T13:06:50.712Z,12.33
2018-10-19T13:09:19.285Z,12.97
2018-10-19T13:11:55.566Z,12.43
2018-10-19T13:14:32.271Z,12.60
2018-10-19T13:17:10.862Z,13.33
2018-10-19T13:19:43.167Z,11.87
2018-10-19T13:22:12.765Z,12.97
2018-10-19T13:24:44.524Z,12.90
2018-10-19T13:27:20.631Z,12.97
2018-10-19T13:29:56.050Z,13.03
2018-10-19T13:32:30.562Z,11.70
2018-10-19T13:35:00.223Z,12.10
2018-10-19T13:37:32.495Z,12.83
2018-10-19T13:40:04.324Z,12.57
2018-10-19T13:42:33.933Z,12.17
2018-10-19T13:45:08.182Z,11.87
2018-10-19T13:47:37.745Z,11.73
2018-10-19T13:50:16.721Z,11.03
2018-10-19T13:52:45.223Z,11.83
2018-10-19T13:55:13.601Z,11.70
2018-10-19T13:57:41.992Z,12.00
2018-10-19T14:00:15.933Z,11.70
2018-10-19T14:02:50.105Z,12.63
2018-10-19T14:05:19.850Z,11.70
2018-10-19T14:07:48.466Z,10.73
2018-10-19T14:10:17.086Z,12.40
2018-10-19T14:12:45.503Z,12.00
2018-10-19T14:15:19.412Z,11.73
2018-10-19T14:17:54.550Z,10.77
2018-10-19T14:20:24.022Z,11.20
2018-10-19T14:22:55.644Z,11.27
2018-10-19T14:25:24.059Z,11.53
2018-10-19T14:27:53.602Z,10.83
2018-10-19T14:30:24.192Z,11.13
2018-10-19T14:32:56.595Z,10.20
2018-10-19T14:35:25.211Z,10.40
2018-10-19T14:37:54.860Z,9.83
2018-10-19T14:40:28.203Z,11.07
2018-10-19T14:42:56.861Z,10.50
2018-10-19T14:45:25.580Z,11.10
2018-10-19T14:47:57.290Z,9.60
2018-10-19T14:50:26.076Z,10.33
2018-10-19T14:52:54.709Z,9.57
2018-10-19T14:55:28.588Z,10.00
2018-10-19T14:57:58.184Z,10.27
2018-10-19T15:00:27.852Z,9.60
2018-10-19T15:02:57.524Z,9.43
2018-10-19T15:05:26.201Z,10.07
2018-10-19T15:07:54.879Z,10.93
2018-10-19T15:10:23.621Z,11.90
2018-10-19T15:12:52.161Z,24.13
2018-10-19T15:15:22.331Z,10.60
2018-10-19T15:17:54.663Z,9.90
2018-10-19T15:20:23.105Z,10.33
2018-10-19T15:22:55.140Z,10.30
2018-10-19T15:25:24.715Z,10.20
2018-10-19T15:27:56.779Z,10.57
2018-10-19T15:30:30.417Z,11.10
2018-10-19T15:32:58.784Z,10.60
2018-10-19T15:35:29.344Z,11.20
2018-10-19T15:37:59.007Z,11.00
2018-10-19T15:40:27.646Z,12.77
2018-10-19T15:42:56.329Z,12.00
2018-10-19T15:45:25.040Z,10.90
2018-10-19T15:47:53.720Z,9.40
2018-10-19T15:50:23.257Z,11.30
2018-10-19T15:52:52.963Z,10.50
2018-10-19T15:55:21.565Z,9.57
2018-10-19T15:57:52.107Z,11.37
2018-10-19T16:00:20.653Z,9.93
2018-10-19T16:02:50.344Z,10.37
2018-10-19T16:05:19.261Z,10.00
2018-10-19T16:07:50.195Z,9.97
2018-10-19T16:10:18.850Z,10.20
2018-10-19T16:12:47.757Z,9.43
2018-10-19T16:15:17.660Z,9.37
2018-10-19T16:17:47.763Z,9.37
2018-10-19T16:20:16.452Z,9.93
2018-10-19T16:22:48.400Z,9.17
2018-10-19T16:25:17.104Z,9.53
2018-10-19T16:27:45.847Z,10.03
2018-10-19T16:30:14.578Z,10.03
2018-10-19T16:32:43.195Z,9.13
2018-10-19T16:35:11.871Z,9.37
2018-10-19T16:37:40.546Z,12.27
2018-10-19T16:40:10.250Z,11.33
2018-10-19T16:42:39.182Z,9.80
2018-10-19T16:45:09.336Z,10.67
2018-10-19T16:47:37.937Z,10.40
2018-10-19T16:50:06.757Z,9.83
2018-10-19T16:52:37.653Z,10.33
2018-10-19T16:55:07.498Z,10.20
2018-10-19T16:57:37.104Z,9.67
2018-10-19T17:00:07.906Z,9.90
2018-10-19T17:02:37.566Z,10.07
2018-10-19T17:05:06.350Z,10.23
2018-10-19T17:07:35.274Z,9.83
2018-10-19T17:10:06.124Z,10.83
2018-10-19T17:12:36.037Z,10.43
2018-10-19T17:15:07.304Z,11.23
2018-10-19T17:17:36.151Z,10.80
2018-10-19T17:20:05.052Z,10.30
2018-10-19T17:22:33.969Z,10.67
2018-10-19T17:25:02.912Z,10.70
2018-10-19T17:27:31.514Z,10.47
2018-10-19T17:30:00.310Z,12.53
2018-10-19T17:32:29.155Z,12.97
2018-10-19T17:34:57.917Z,12.93
2018-10-19T17:37:27.767Z,11.90
2018-10-19T17:39:56.482Z,12.53
2018-10-19T17:42:28.818Z,10.70
2018-10-19T17:44:57.502Z,10.73
2018-10-19T17:47:26.201Z,11.83
2018-10-19T17:49:57.999Z,19.27
2018-10-19T17:52:30.635Z,12.27
2018-10-19T17:54:59.305Z,11.80
2018-10-19T17:57:32.034Z,11.60
2018-10-19T18:00:03.004Z,11.07
2018-10-19T18:02:40.423Z,10.30
2018-10-19T18:05:13.179Z,9.23
2018-10-19T18:07:41.903Z,9.20
2018-10-19T18:10:18.760Z,8.30
2018-10-19T18:12:47.519Z,9.50
2018-10-19T18:15:16.423Z,8.67
2018-10-19T18:17:45.128Z,9.00
2018-10-19T18:20:17.532Z,8.40
2018-10-19T18:22:46.284Z,8.57
2018-10-19T18:25:14.839Z,8.97
2018-10-19T18:27:43.605Z,9.03
2018-10-19T18:30:12.297Z,9.03
2018-10-19T18:32:40.935Z,9.33
2018-10-19T18:35:10.641Z,8.97
2018-10-19T18:37:43.175Z,9.33
2018-10-19T18:40:12.587Z,9.03
2018-10-19T18:42:42.497Z,9.13
2018-10-19T18:45:11.282Z,8.63
2018-10-19T18:47:46.238Z,9.07
2018-10-19T18:50:15.053Z,8.63
2018-10-19T18:52:54.766Z,8.77
2018-10-19T18:55:23.348Z,9.43
2018-10-19T18:57:57.812Z,9.23
2018-10-19T19:00:26.561Z,10.60
2018-10-19T19:02:56.290Z,11.93
2018-10-19T19:05:24.876Z,10.13
2018-10-19T19:07:53.613Z,10.87
2018-10-19T19:10:22.221Z,11.20
2018-10-19T19:13:02.179Z,13.10
2018-10-19T19:15:31.036Z,13.60
2018-10-19T19:18:07.343Z,12.60
2018-10-19T19:20:37.970Z,12.60
2018-10-19T19:23:10.321Z,10.57
2018-10-19T19:25:44.183Z,11.23
2018-10-19T19:28:13.002Z,10.33
2018-10-19T19:30:47.927Z,10.03
2018-10-19T19:33:23.738Z,9.87
2018-10-19T19:35:52.407Z,9.37
2018-10-19T19:38:23.103Z,10.30
2018-10-19T19:41:01.031Z,11.30
2018-10-19T19:43:32.643Z,11.20
2018-10-19T19:46:08.975Z,10.00
2018-10-19T19:48:42.966Z,11.50
2018-10-19T19:51:13.084Z,10.90
2018-10-19T19:53:41.880Z,10.57
2018-10-19T19:56:10.921Z,10.30
2018-10-19T19:58:45.560Z,12.97
2018-10-19T20:01:14.246Z,11.50
2018-10-19T20:03:43.828Z,10.50
2018-10-19T20:06:12.582Z,11.47
2018-10-19T20:08:41.134Z,11.00
2018-10-19T20:11:09.679Z,11.83
2018-10-19T20:13:41.928Z,12.73
2018-10-19T20:16:13.728Z,11.13
2018-10-19T20:18:49.713Z,11.90
2018-10-19T20:21:21.875Z,11.77
2018-10-19T20:23:52.329Z,12.27
2018-10-19T20:26:22.856Z,11.00
2018-10-19T20:28:51.510Z,10.90
2018-10-19T20:31:21.174Z,10.93
2018-10-19T20:33:49.839Z,11.17
2018-10-19T20:36:18.286Z,12.20
2018-10-19T20:38:46.935Z,10.73
2018-10-19T20:41:15.733Z,10.50
2018-10-19T20:43:45.245Z,10.97
2018-10-19T20:46:17.251Z,11.23
2018-10-19T20:48:55.508Z,12.10
2018-10-19T20:51:24.230Z,11.43
2018-10-19T20:53:52.864Z,12.23
2018-10-19T20:56:25.517Z,11.83
2018-10-19T20:58:53.944Z,11.40
2018-10-19T21:01:23.610Z,11.67
2018-10-19T21:03:55.538Z,11.73
2018-10-19T21:06:30.795Z,11.53
2018-10-19T21:09:08.130Z,11.43
2018-10-19T21:11:37.196Z,11.27
2018-10-19T21:14:05.939Z,11.07
2018-10-19T21:16:34.391Z,11.67
2018-10-19T21:19:03.150Z,11.00
2018-10-19T21:21:31.772Z,11.57
2018-10-19T21:24:00.140Z,11.87
2018-10-19T21:26:28.469Z,11.90
2018-10-19T21:28:56.922Z,11.60
2018-10-19T21:31:27.483Z,10.90
2018-10-19T21:33:56.114Z,11.73
2018-10-19T21:36:29.455Z,12.03
2018-10-19T21:39:01.487Z,11.97
2018-10-19T21:41:31.125Z,11.83
2018-10-19T21:43:59.822Z,12.10
2018-10-19T21:46:28.472Z,12.70
2018-10-19T21:49:02.760Z,12.40
2018-10-19T21:51:31.502Z,13.47
2018-10-19T21:54:00.089Z,12.40
2018-10-19T21:56:28.726Z,12.93
2018-10-19T21:59:00.863Z,12.80
2018-10-19T22:01:34.996Z,11.90
2018-10-19T22:04:09.875Z,11.83
2018-10-19T22:06:38.592Z,14.43
2018-10-19T22:09:12.511Z,15.77
2018-10-19T22:11:46.934Z,16.03
2018-10-19T22:14:23.680Z,26.00
2018-10-19T22:16:55.768Z,14.23
2018-10-19T22:19:27.468Z,11.87
2018-10-19T22:21:57.089Z,14.00
2018-10-19T22:24:28.895Z,14.07
2018-10-19T22:27:03.044Z,12.27
2018-10-19T22:29:32.639Z,11.90
2018-10-19T22:32:04.439Z,12.17
2018-10-19T22:34:32.820Z,13.40
2018-10-19T22:37:01.163Z,13.63
2018-10-19T22:39:35.093Z,12.93
2018-10-19T22:42:10.881Z,13.17
2018-10-19T22:44:40.469Z,12.87
2018-10-19T22:47:11.093Z,13.63
2018-10-19T22:49:43.358Z,13.03
2018-10-19T22:52:15.133Z,13.90
2018-10-19T22:54:44.733Z,13.70
2018-10-19T22:57:14.325Z,13.20
2018-10-19T22:59:48.288Z,13.00
2018-10-19T23:02:16.913Z,13.50
2018-10-19T23:04:48.677Z,13.93
2018-10-19T23:07:20.429Z,15.77
2018-10-19T23:09:50.100Z,15.20
2018-10-19T23:12:20.560Z,15.37
2018-10-19T23:14:52.350Z,13.70
2018-10-19T23:17:22.882Z,12.40
2018-10-19T23:19:54.998Z,12.87
2018-10-19T23:22:30.103Z,13.00
2018-10-19T23:25:05.263Z,13.87
2018-10-19T23:27:34.837Z,13.20
2018-10-19T23:30:04.588Z,12.93
2018-10-19T23:32:33.178Z,13.50
2018-10-19T23:35:01.861Z,13.33
2018-10-19T23:37:30.575Z,13.00
2018-10-19T23:39:59.235Z,12.70
2018-10-19T23:42:27.908Z,13.30
2018-10-19T23:44:56.575Z,12.90
2018-10-19T23:47:26.192Z,13.90
2018-10-19T23:49:54.550Z,13.30
2018-10-19T23:52:22.953Z,13.00
2018-10-19T23:54:52.562Z,13.47
2018-10-19T23:57:20.939Z,14.03
2018-10-19T23:59:53.011Z,14.10
